Terminal Aerodrome Forecast
Issued by NWS

Home | Current Version | Previous Version | Text Only | Print | Product List | Glossary On
Versions: 1 2 3 4 5 6 7 8 9 10 11 12 13
557
FTUS45 KABQ 271754 RRA
TAFROW
TAF
KROW 271754Z 2718/2818 21010KT P6SM SKC
     FM272100 23019G31KT P6SM BKN250
     FM280200 22010KT P6SM SCT120
     FM281500 20015G25KT P6SM SCT110
     FM281700 23030G44KT 6SM BLDU SCT100=

USA.gov is the U.S. government's official web portal to all federal, state and local government web resources and services.